Strona główna
METAR-TAF:

METAR-TAF

Lotnisko :

Jaffrey, New Hampshire, Stany Zjednoczone

Szerokość geograficzna: 42-48-21N, Długość geograficzna: 072-00-02W, wysokość: 317 m

Aktualna obserwacja pogody

Raport powstał 19 minut temu, godzina 03:32 UTC
Wiatr 5 kt z kierunków zmiennych
Temperatura 6°C
Wilgotność 100%
Ciśnienie 1013 hPa
Widzialność: 6.4 km
Przerywane chmury na wysokości 400 ft
Przerywane chmury na wysokości 900 ft
Zachmurzenie całkowite na wysokości 1500 ft
słaby deszcz, zamglenie

METAR: KAFN 040332Z AUTO VRB05KT 4SM -RA BR BKN004 BKN009 OVC015 06/06 A2990 RMK AO2 P0001 T00610056 $

czas: 23:51 (03:51 UTC)


TAF: brakujący

Obserwacja i prognoza pogody dla ponad 4000 lotnisk (raport METAR i TAF).

Dostępne stacje oznaczono żółtymi i czerwonymi punktami na mapie.

Najedź kursorem aby zobaczyć nazwę stacji.

Kliknij aby zobaczyć obserwacje i prognozy pogody.

Aby zmienić mapę: kliknij na zielony przycisk z czarnym krzyżykiem, aby powiększyć; na zielony przycisk z myślnikiem, aby pomniejszyć; na zielone strzałki, aby przejść do map sąsiednich.


METAR-TAF: